sensor_id;sensor_type;location;lat;lon;timestamp;P1;durP1;ratioP1;P2;durP2;ratioP2
39994;SDS011;25686;51.908;10.418;2022-08-19T00:00:27;26.15;;;21.25;;
39994;SDS011;25686;51.908;10.418;2022-08-19T00:02:28;30.73;;;21.85;;
39994;SDS011;25686;51.908;10.418;2022-08-19T00:04:31;29.08;;;21.30;;
39994;SDS011;25686;51.908;10.418;2022-08-19T00:06:33;28.75;;;20.33;;
39994;SDS011;25686;51.908;10.418;2022-08-19T00:08:34;28.60;;;20.05;;
39994;SDS011;25686;51.908;10.418;2022-08-19T00:10:35;29.75;;;20.70;;
39994;SDS011;25686;51.908;10.418;2022-08-19T00:12:36;27.58;;;18.73;;
39994;SDS011;25686;51.908;10.418;2022-08-19T00:14:37;28.13;;;19.88;;
39994;SDS011;25686;51.908;10.418;2022-08-19T00:16:38;25.05;;;18.83;;
39994;SDS011;25686;51.908;10.418;2022-08-19T00:18:41;23.10;;;18.60;;
39994;SDS011;25686;51.908;10.418;2022-08-19T00:20:42;23.33;;;18.52;;
39994;SDS011;25686;51.908;10.418;2022-08-19T00:22:43;26.70;;;18.48;;
39994;SDS011;25686;51.908;10.418;2022-08-19T00:24:45;24.88;;;19.13;;
39994;SDS011;25686;51.908;10.418;2022-08-19T00:26:46;22.80;;;17.95;;
39994;SDS011;25686;51.908;10.418;2022-08-19T00:28:47;24.02;;;18.80;;
39994;SDS011;25686;51.908;10.418;2022-08-19T00:30:48;24.75;;;17.90;;
39994;SDS011;25686;51.908;10.418;2022-08-19T00:32:51;26.88;;;17.80;;
39994;SDS011;25686;51.908;10.418;2022-08-19T00:34:55;28.65;;;18.80;;
39994;SDS011;25686;51.908;10.418;2022-08-19T00:36:56;25.17;;;18.02;;
39994;SDS011;25686;51.908;10.418;2022-08-19T00:38:57;24.88;;;18.33;;
39994;SDS011;25686;51.908;10.418;2022-08-19T00:40:58;24.90;;;17.38;;
39994;SDS011;25686;51.908;10.418;2022-08-19T00:42:59;26.13;;;17.95;;
39994;SDS011;25686;51.908;10.418;2022-08-19T00:45:00;28.17;;;18.45;;
39994;SDS011;25686;51.908;10.418;2022-08-19T00:47:01;23.17;;;18.55;;
39994;SDS011;25686;51.908;10.418;2022-08-19T00:51:19;25.55;;;18.52;;
39994;SDS011;25686;51.908;10.418;2022-08-19T00:53:23;31.08;;;18.10;;
39994;SDS011;25686;51.908;10.418;2022-08-19T00:55:24;22.17;;;16.27;;
39994;SDS011;25686;51.908;10.418;2022-08-19T00:57:29;22.05;;;15.77;;
39994;SDS011;25686;51.908;10.418;2022-08-19T00:59:31;20.05;;;16.38;;
39994;SDS011;25686;51.908;10.418;2022-08-19T01:01:33;20.63;;;15.63;;
39994;SDS011;25686;51.908;10.418;2022-08-19T01:03:34;23.25;;;16.13;;
39994;SDS011;25686;51.908;10.418;2022-08-19T01:05:35;23.25;;;15.55;;
39994;SDS011;25686;51.908;10.418;2022-08-19T01:07:37;22.35;;;14.75;;
39994;SDS011;25686;51.908;10.418;2022-08-19T01:09:39;21.05;;;14.88;;
39994;SDS011;25686;51.908;10.418;2022-08-19T01:11:41;19.80;;;14.15;;
39994;SDS011;25686;51.908;10.418;2022-08-19T01:13:42;18.98;;;15.25;;
39994;SDS011;25686;51.908;10.418;2022-08-19T01:15:45;22.73;;;14.80;;
39994;SDS011;25686;51.908;10.418;2022-08-19T01:17:46;22.15;;;14.80;;
39994;SDS011;25686;51.908;10.418;2022-08-19T01:19:48;24.92;;;14.90;;
39994;SDS011;25686;51.908;10.418;2022-08-19T01:21:53;19.00;;;14.63;;
39994;SDS011;25686;51.908;10.418;2022-08-19T01:23:54;25.35;;;15.27;;
39994;SDS011;25686;51.908;10.418;2022-08-19T01:25:55;19.27;;;14.88;;
39994;SDS011;25686;51.908;10.418;2022-08-19T01:27:57;22.25;;;15.48;;
39994;SDS011;25686;51.908;10.418;2022-08-19T01:29:58;23.33;;;15.40;;
39994;SDS011;25686;51.908;10.418;2022-08-19T01:31:59;20.10;;;15.57;;
39994;SDS011;25686;51.908;10.418;2022-08-19T01:34:01;20.13;;;14.80;;
39994;SDS011;25686;51.908;10.418;2022-08-19T01:36:07;20.73;;;14.27;;
39994;SDS011;25686;51.908;10.418;2022-08-19T01:38:10;21.50;;;14.95;;
39994;SDS011;25686;51.908;10.418;2022-08-19T01:40:11;19.80;;;14.48;;
39994;SDS011;25686;51.908;10.418;2022-08-19T01:42:12;18.55;;;13.77;;
39994;SDS011;25686;51.908;10.418;2022-08-19T01:44:13;21.73;;;14.82;;
39994;SDS011;25686;51.908;10.418;2022-08-19T01:46:14;19.88;;;15.10;;
39994;SDS011;25686;51.908;10.418;2022-08-19T01:48:15;18.30;;;15.52;;
39994;SDS011;25686;51.908;10.418;2022-08-19T01:50:16;23.23;;;16.42;;
39994;SDS011;25686;51.908;10.418;2022-08-19T01:52:17;25.75;;;17.33;;
39994;SDS011;25686;51.908;10.418;2022-08-19T01:54:19;24.23;;;17.63;;
39994;SDS011;25686;51.908;10.418;2022-08-19T01:56:20;26.20;;;18.08;;
39994;SDS011;25686;51.908;10.418;2022-08-19T01:58:22;22.58;;;17.98;;
39994;SDS011;25686;51.908;10.418;2022-08-19T02:00:25;26.00;;;17.88;;
39994;SDS011;25686;51.908;10.418;2022-08-19T02:02:27;25.23;;;18.38;;
39994;SDS011;25686;51.908;10.418;2022-08-19T02:04:28;24.00;;;18.27;;
39994;SDS011;25686;51.908;10.418;2022-08-19T02:06:29;26.83;;;18.30;;
39994;SDS011;25686;51.908;10.418;2022-08-19T02:08:31;23.85;;;17.63;;
39994;SDS011;25686;51.908;10.418;2022-08-19T02:10:32;25.90;;;16.33;;
39994;SDS011;25686;51.908;10.418;2022-08-19T02:12:33;25.95;;;17.13;;
39994;SDS011;25686;51.908;10.418;2022-08-19T02:14:35;23.27;;;17.52;;
39994;SDS011;25686;51.908;10.418;2022-08-19T02:16:37;22.58;;;16.67;;
39994;SDS011;25686;51.908;10.418;2022-08-19T02:18:38;24.55;;;17.42;;
39994;SDS011;25686;51.908;10.418;2022-08-19T02:20:39;19.77;;;16.27;;
39994;SDS011;25686;51.908;10.418;2022-08-19T02:22:40;25.00;;;16.25;;
39994;SDS011;25686;51.908;10.418;2022-08-19T02:24:42;21.50;;;15.27;;
39994;SDS011;25686;51.908;10.418;2022-08-19T02:26:43;21.60;;;15.80;;
39994;SDS011;25686;51.908;10.418;2022-08-19T02:28:44;24.17;;;16.77;;
39994;SDS011;25686;51.908;10.418;2022-08-19T02:30:46;24.35;;;15.02;;
39994;SDS011;25686;51.908;10.418;2022-08-19T02:32:47;20.83;;;17.00;;
39994;SDS011;25686;51.908;10.418;2022-08-19T02:34:48;23.23;;;16.67;;
39994;SDS011;25686;51.908;10.418;2022-08-19T02:36:49;27.70;;;17.75;;
39994;SDS011;25686;51.908;10.418;2022-08-19T02:38:50;25.80;;;17.30;;
39994;SDS011;25686;51.908;10.418;2022-08-19T02:40:52;23.83;;;16.63;;
39994;SDS011;25686;51.908;10.418;2022-08-19T02:42:53;26.13;;;18.85;;
39994;SDS011;25686;51.908;10.418;2022-08-19T02:44:55;25.65;;;18.40;;
39994;SDS011;25686;51.908;10.418;2022-08-19T02:46:56;30.13;;;21.33;;
39994;SDS011;25686;51.908;10.418;2022-08-19T02:48:58;33.28;;;22.20;;
39994;SDS011;25686;51.908;10.418;2022-08-19T02:51:00;29.75;;;22.15;;
39994;SDS011;25686;51.908;10.418;2022-08-19T02:53:01;36.97;;;25.15;;
39994;SDS011;25686;51.908;10.418;2022-08-19T02:55:02;32.25;;;24.40;;
39994;SDS011;25686;51.908;10.418;2022-08-19T02:57:04;31.60;;;22.77;;
39994;SDS011;25686;51.908;10.418;2022-08-19T02:59:06;42.42;;;26.85;;
39994;SDS011;25686;51.908;10.418;2022-08-19T03:01:08;37.53;;;26.70;;
39994;SDS011;25686;51.908;10.418;2022-08-19T03:03:10;38.45;;;27.83;;
39994;SDS011;25686;51.908;10.418;2022-08-19T03:05:11;43.75;;;28.52;;
39994;SDS011;25686;51.908;10.418;2022-08-19T03:07:13;40.03;;;27.98;;
39994;SDS011;25686;51.908;10.418;2022-08-19T03:09:15;39.17;;;27.20;;
39994;SDS011;25686;51.908;10.418;2022-08-19T03:11:17;35.15;;;26.83;;
39994;SDS011;25686;51.908;10.418;2022-08-19T03:13:18;37.63;;;27.70;;
39994;SDS011;25686;51.908;10.418;2022-08-19T03:15:19;37.78;;;29.55;;
39994;SDS011;25686;51.908;10.418;2022-08-19T03:17:20;39.92;;;29.52;;
39994;SDS011;25686;51.908;10.418;2022-08-19T03:19:21;40.15;;;30.50;;
39994;SDS011;25686;51.908;10.418;2022-08-19T03:21:24;42.28;;;30.23;;
39994;SDS011;25686;51.908;10.418;2022-08-19T03:23:25;41.97;;;30.63;;
39994;SDS011;25686;51.908;10.418;2022-08-19T03:25:26;42.45;;;29.90;;
39994;SDS011;25686;51.908;10.418;2022-08-19T03:27:27;41.50;;;30.20;;
39994;SDS011;25686;51.908;10.418;2022-08-19T03:29:29;42.45;;;30.13;;
39994;SDS011;25686;51.908;10.418;2022-08-19T03:31:31;39.67;;;29.33;;
39994;SDS011;25686;51.908;10.418;2022-08-19T03:33:33;35.97;;;28.90;;
39994;SDS011;25686;51.908;10.418;2022-08-19T03:35:34;43.25;;;29.92;;
39994;SDS011;25686;51.908;10.418;2022-08-19T03:37:38;38.38;;;28.10;;
39994;SDS011;25686;51.908;10.418;2022-08-19T03:39:40;31.55;;;25.33;;
39994;SDS011;25686;51.908;10.418;2022-08-19T03:41:42;32.75;;;25.00;;
39994;SDS011;25686;51.908;10.418;2022-08-19T03:43:44;37.35;;;25.58;;
39994;SDS011;25686;51.908;10.418;2022-08-19T03:45:46;31.73;;;24.58;;
39994;SDS011;25686;51.908;10.418;2022-08-19T03:47:48;31.05;;;23.33;;
39994;SDS011;25686;51.908;10.418;2022-08-19T03:49:49;32.47;;;23.15;;
39994;SDS011;25686;51.908;10.418;2022-08-19T03:51:50;26.67;;;20.73;;
39994;SDS011;25686;51.908;10.418;2022-08-19T03:53:52;25.35;;;18.55;;
39994;SDS011;25686;51.908;10.418;2022-08-19T03:55:53;24.15;;;18.58;;
39994;SDS011;25686;51.908;10.418;2022-08-19T03:57:54;22.30;;;19.20;;
39994;SDS011;25686;51.908;10.418;2022-08-19T03:59:56;26.20;;;18.38;;
39994;SDS011;25686;51.908;10.418;2022-08-19T04:01:59;28.80;;;20.40;;
39994;SDS011;25686;51.908;10.418;2022-08-19T04:04:00;24.00;;;18.98;;
39994;SDS011;25686;51.908;10.418;2022-08-19T04:06:11;22.80;;;16.77;;
39994;SDS011;25686;51.908;10.418;2022-08-19T04:08:13;25.73;;;18.05;;
39994;SDS011;25686;51.908;10.418;2022-08-19T04:10:15;20.30;;;15.10;;
39994;SDS011;25686;51.908;10.418;2022-08-19T04:12:16;22.58;;;16.52;;
39994;SDS011;25686;51.908;10.418;2022-08-19T04:14:18;22.60;;;16.63;;
39994;SDS011;25686;51.908;10.418;2022-08-19T04:16:20;23.05;;;16.25;;
39994;SDS011;25686;51.908;10.418;2022-08-19T04:18:21;21.23;;;15.10;;
39994;SDS011;25686;51.908;10.418;2022-08-19T04:20:22;16.95;;;13.55;;
39994;SDS011;25686;51.908;10.418;2022-08-19T04:22:23;18.65;;;13.40;;
39994;SDS011;25686;51.908;10.418;2022-08-19T04:24:24;17.95;;;12.73;;
39994;SDS011;25686;51.908;10.418;2022-08-19T04:26:26;20.00;;;12.80;;
39994;SDS011;25686;51.908;10.418;2022-08-19T04:28:27;17.45;;;12.73;;
39994;SDS011;25686;51.908;10.418;2022-08-19T04:30:28;15.55;;;11.55;;
39994;SDS011;25686;51.908;10.418;2022-08-19T04:32:29;16.38;;;11.40;;
39994;SDS011;25686;51.908;10.418;2022-08-19T04:34:31;12.10;;;10.63;;
39994;SDS011;25686;51.908;10.418;2022-08-19T04:36:34;16.52;;;10.75;;
39994;SDS011;25686;51.908;10.418;2022-08-19T04:38:35;14.45;;;10.20;;
39994;SDS011;25686;51.908;10.418;2022-08-19T04:40:42;13.75;;;9.85;;
39994;SDS011;25686;51.908;10.418;2022-08-19T04:43:02;11.02;;;8.57;;
39994;SDS011;25686;51.908;10.418;2022-08-19T04:45:03;12.40;;;7.93;;
39994;SDS011;25686;51.908;10.418;2022-08-19T04:47:05;15.27;;;8.77;;
39994;SDS011;25686;51.908;10.418;2022-08-19T04:49:06;15.32;;;9.55;;
39994;SDS011;25686;51.908;10.418;2022-08-19T04:51:09;12.85;;;9.10;;
39994;SDS011;25686;51.908;10.418;2022-08-19T04:53:11;14.02;;;9.65;;
39994;SDS011;25686;51.908;10.418;2022-08-19T04:55:12;10.38;;;8.65;;
39994;SDS011;25686;51.908;10.418;2022-08-19T04:57:13;12.80;;;9.82;;
39994;SDS011;25686;51.908;10.418;2022-08-19T04:59:15;17.02;;;11.52;;
39994;SDS011;25686;51.908;10.418;2022-08-19T05:01:27;12.73;;;10.70;;
39994;SDS011;25686;51.908;10.418;2022-08-19T05:03:28;14.52;;;10.73;;
39994;SDS011;25686;51.908;10.418;2022-08-19T05:05:32;12.18;;;10.35;;
39994;SDS011;25686;51.908;10.418;2022-08-19T05:07:34;18.48;;;11.25;;
39994;SDS011;25686;51.908;10.418;2022-08-19T05:09:35;14.38;;;11.27;;
39994;SDS011;25686;51.908;10.418;2022-08-19T05:11:36;17.33;;;10.95;;
39994;SDS011;25686;51.908;10.418;2022-08-19T05:13:38;18.50;;;12.45;;
39994;SDS011;25686;51.908;10.418;2022-08-19T05:15:40;17.02;;;12.27;;
39994;SDS011;25686;51.908;10.418;2022-08-19T05:17:41;15.35;;;11.65;;
39994;SDS011;25686;51.908;10.418;2022-08-19T05:20:03;21.67;;;13.68;;
39994;SDS011;25686;51.908;10.418;2022-08-19T05:22:22;19.73;;;14.82;;
39994;SDS011;25686;51.908;10.418;2022-08-19T05:24:32;18.90;;;14.82;;
39994;SDS011;25686;51.908;10.418;2022-08-19T05:26:36;19.02;;;14.45;;
39994;SDS011;25686;51.908;10.418;2022-08-19T05:28:37;20.88;;;14.20;;
39994;SDS011;25686;51.908;10.418;2022-08-19T05:30:38;19.45;;;14.23;;
39994;SDS011;25686;51.908;10.418;2022-08-19T05:32:41;19.75;;;13.15;;
39994;SDS011;25686;51.908;10.418;2022-08-19T05:34:42;16.40;;;12.20;;
39994;SDS011;25686;51.908;10.418;2022-08-19T05:36:44;20.70;;;15.02;;
39994;SDS011;25686;51.908;10.418;2022-08-19T05:38:45;24.17;;;15.00;;
39994;SDS011;25686;51.908;10.418;2022-08-19T05:40:47;17.67;;;12.20;;
39994;SDS011;25686;51.908;10.418;2022-08-19T05:42:49;19.52;;;13.75;;
39994;SDS011;25686;51.908;10.418;2022-08-19T05:44:50;18.88;;;12.48;;
39994;SDS011;25686;51.908;10.418;2022-08-19T05:46:51;19.40;;;12.98;;
39994;SDS011;25686;51.908;10.418;2022-08-19T05:48:53;19.52;;;13.23;;
39994;SDS011;25686;51.908;10.418;2022-08-19T05:50:56;20.50;;;13.95;;
39994;SDS011;25686;51.908;10.418;2022-08-19T05:52:58;18.08;;;13.27;;
39994;SDS011;25686;51.908;10.418;2022-08-19T05:54:59;15.70;;;12.77;;
39994;SDS011;25686;51.908;10.418;2022-08-19T05:57:00;16.92;;;12.02;;
39994;SDS011;25686;51.908;10.418;2022-08-19T05:59:02;18.23;;;12.90;;
39994;SDS011;25686;51.908;10.418;2022-08-19T06:01:04;18.13;;;11.95;;
39994;SDS011;25686;51.908;10.418;2022-08-19T06:03:09;19.00;;;14.32;;
39994;SDS011;25686;51.908;10.418;2022-08-19T06:05:10;20.33;;;13.48;;
39994;SDS011;25686;51.908;10.418;2022-08-19T06:07:11;21.85;;;14.07;;
39994;SDS011;25686;51.908;10.418;2022-08-19T06:09:12;17.67;;;12.90;;
39994;SDS011;25686;51.908;10.418;2022-08-19T06:13:14;15.90;;;11.32;;
39994;SDS011;25686;51.908;10.418;2022-08-19T06:15:15;17.55;;;12.63;;
39994;SDS011;25686;51.908;10.418;2022-08-19T06:17:16;19.40;;;12.68;;
39994;SDS011;25686;51.908;10.418;2022-08-19T06:19:18;15.75;;;12.48;;
39994;SDS011;25686;51.908;10.418;2022-08-19T06:21:20;16.23;;;12.43;;
39994;SDS011;25686;51.908;10.418;2022-08-19T06:23:20;17.52;;;12.88;;
39994;SDS011;25686;51.908;10.418;2022-08-19T06:25:21;17.17;;;12.25;;
39994;SDS011;25686;51.908;10.418;2022-08-19T06:27:22;17.20;;;11.73;;
39994;SDS011;25686;51.908;10.418;2022-08-19T06:29:24;16.63;;;13.38;;
39994;SDS011;25686;51.908;10.418;2022-08-19T06:31:27;18.27;;;13.05;;
39994;SDS011;25686;51.908;10.418;2022-08-19T06:33:28;17.73;;;13.82;;
39994;SDS011;25686;51.908;10.418;2022-08-19T06:35:29;21.63;;;15.07;;
39994;SDS011;25686;51.908;10.418;2022-08-19T06:37:30;17.40;;;13.38;;
39994;SDS011;25686;51.908;10.418;2022-08-19T06:39:33;17.33;;;13.25;;
39994;SDS011;25686;51.908;10.418;2022-08-19T06:41:35;16.75;;;13.88;;
39994;SDS011;25686;51.908;10.418;2022-08-19T06:43:37;17.13;;;13.77;;
39994;SDS011;25686;51.908;10.418;2022-08-19T06:45:38;20.23;;;14.15;;
39994;SDS011;25686;51.908;10.418;2022-08-19T06:47:39;17.30;;;13.45;;
39994;SDS011;25686;51.908;10.418;2022-08-19T06:49:40;16.65;;;13.00;;
39994;SDS011;25686;51.908;10.418;2022-08-19T06:51:41;17.83;;;13.35;;
39994;SDS011;25686;51.908;10.418;2022-08-19T06:53:43;22.02;;;16.77;;
39994;SDS011;25686;51.908;10.418;2022-08-19T06:55:46;18.80;;;15.65;;
39994;SDS011;25686;51.908;10.418;2022-08-19T06:57:47;19.85;;;14.95;;
39994;SDS011;25686;51.908;10.418;2022-08-19T06:59:52;18.27;;;14.75;;
39994;SDS011;25686;51.908;10.418;2022-08-19T07:01:56;20.42;;;16.10;;
39994;SDS011;25686;51.908;10.418;2022-08-19T07:03:57;17.63;;;15.45;;
39994;SDS011;25686;51.908;10.418;2022-08-19T07:06:02;18.50;;;15.25;;
39994;SDS011;25686;51.908;10.418;2022-08-19T07:08:03;17.75;;;15.18;;
39994;SDS011;25686;51.908;10.418;2022-08-19T07:10:06;19.30;;;15.07;;
39994;SDS011;25686;51.908;10.418;2022-08-19T07:12:08;20.60;;;15.68;;
39994;SDS011;25686;51.908;10.418;2022-08-19T07:14:09;19.33;;;15.75;;
39994;SDS011;25686;51.908;10.418;2022-08-19T07:16:11;19.45;;;14.85;;
39994;SDS011;25686;51.908;10.418;2022-08-19T07:18:12;17.50;;;14.02;;
39994;SDS011;25686;51.908;10.418;2022-08-19T07:20:13;15.85;;;14.13;;
39994;SDS011;25686;51.908;10.418;2022-08-19T07:22:14;17.45;;;15.55;;
39994;SDS011;25686;51.908;10.418;2022-08-19T07:24:15;17.80;;;14.05;;
39994;SDS011;25686;51.908;10.418;2022-08-19T07:26:19;18.52;;;13.55;;
39994;SDS011;25686;51.908;10.418;2022-08-19T07:28:20;16.85;;;13.23;;
39994;SDS011;25686;51.908;10.418;2022-08-19T07:30:22;17.67;;;13.10;;
39994;SDS011;25686;51.908;10.418;2022-08-19T07:32:24;16.08;;;12.70;;
39994;SDS011;25686;51.908;10.418;2022-08-19T07:34:27;15.55;;;12.05;;
39994;SDS011;25686;51.908;10.418;2022-08-19T07:36:28;18.45;;;12.43;;
39994;SDS011;25686;51.908;10.418;2022-08-19T07:38:32;16.63;;;11.07;;
39994;SDS011;25686;51.908;10.418;2022-08-19T07:40:33;15.70;;;12.38;;
39994;SDS011;25686;51.908;10.418;2022-08-19T07:42:34;13.73;;;10.88;;
39994;SDS011;25686;51.908;10.418;2022-08-19T07:44:36;14.38;;;11.27;;
39994;SDS011;25686;51.908;10.418;2022-08-19T07:46:38;12.80;;;10.07;;
39994;SDS011;25686;51.908;10.418;2022-08-19T07:48:41;11.82;;;10.02;;
39994;SDS011;25686;51.908;10.418;2022-08-19T07:50:42;14.80;;;11.30;;
39994;SDS011;25686;51.908;10.418;2022-08-19T07:52:43;13.40;;;11.50;;
39994;SDS011;25686;51.908;10.418;2022-08-19T07:54:45;15.90;;;10.18;;
39994;SDS011;25686;51.908;10.418;2022-08-19T07:56:46;15.52;;;10.60;;
39994;SDS011;25686;51.908;10.418;2022-08-19T07:58:48;13.57;;;9.77;;
39994;SDS011;25686;51.908;10.418;2022-08-19T08:00:50;13.38;;;10.23;;
39994;SDS011;25686;51.908;10.418;2022-08-19T08:02:51;13.85;;;11.40;;
39994;SDS011;25686;51.908;10.418;2022-08-19T08:04:52;15.75;;;12.77;;
39994;SDS011;25686;51.908;10.418;2022-08-19T08:07:12;17.85;;;13.10;;
39994;SDS011;25686;51.908;10.418;2022-08-19T08:09:33;18.10;;;13.80;;
39994;SDS011;25686;51.908;10.418;2022-08-19T08:11:35;14.73;;;12.38;;
39994;SDS011;25686;51.908;10.418;2022-08-19T08:13:36;17.38;;;12.15;;
39994;SDS011;25686;51.908;10.418;2022-08-19T08:15:37;16.55;;;12.15;;
39994;SDS011;25686;51.908;10.418;2022-08-19T08:17:39;14.77;;;11.63;;
39994;SDS011;25686;51.908;10.418;2022-08-19T08:19:40;12.73;;;11.30;;
39994;SDS011;25686;51.908;10.418;2022-08-19T08:21:42;15.23;;;11.45;;
39994;SDS011;25686;51.908;10.418;2022-08-19T08:23:43;17.80;;;11.52;;
39994;SDS011;25686;51.908;10.418;2022-08-19T08:25:44;12.77;;;11.23;;
39994;SDS011;25686;51.908;10.418;2022-08-19T08:27:45;11.68;;;10.50;;
39994;SDS011;25686;51.908;10.418;2022-08-19T08:29:46;13.13;;;11.32;;
39994;SDS011;25686;51.908;10.418;2022-08-19T08:31:48;15.52;;;10.95;;
39994;SDS011;25686;51.908;10.418;2022-08-19T08:33:50;11.48;;;10.25;;
39994;SDS011;25686;51.908;10.418;2022-08-19T08:35:51;13.07;;;10.88;;
39994;SDS011;25686;51.908;10.418;2022-08-19T08:37:53;13.02;;;11.30;;
39994;SDS011;25686;51.908;10.418;2022-08-19T08:39:55;12.38;;;9.88;;
39994;SDS011;25686;51.908;10.418;2022-08-19T08:42:20;11.98;;;10.65;;
39994;SDS011;25686;51.908;10.418;2022-08-19T08:44:18;11.93;;;9.50;;
39994;SDS011;25686;51.908;10.418;2022-08-19T08:47:03;12.57;;;10.55;;
39994;SDS011;25686;51.908;10.418;2022-08-19T08:48:53;13.60;;;11.75;;
39994;SDS011;25686;51.908;10.418;2022-08-19T08:50:55;12.98;;;9.98;;
39994;SDS011;25686;51.908;10.418;2022-08-19T08:52:57;13.52;;;10.80;;
39994;SDS011;25686;51.908;10.418;2022-08-19T08:54:59;12.02;;;10.60;;
39994;SDS011;25686;51.908;10.418;2022-08-19T08:57:03;12.05;;;10.82;;
39994;SDS011;25686;51.908;10.418;2022-08-19T08:59:05;11.02;;;9.93;;
39994;SDS011;25686;51.908;10.418;2022-08-19T09:01:10;13.52;;;9.88;;
39994;SDS011;25686;51.908;10.418;2022-08-19T09:03:19;12.00;;;9.50;;
39994;SDS011;25686;51.908;10.418;2022-08-19T09:05:21;11.68;;;9.65;;
39994;SDS011;25686;51.908;10.418;2022-08-19T09:09:31;12.68;;;10.52;;
39994;SDS011;25686;51.908;10.418;2022-08-19T09:14:00;10.18;;;9.07;;
39994;SDS011;25686;51.908;10.418;2022-08-19T09:16:07;14.07;;;9.95;;
39994;SDS011;25686;51.908;10.418;2022-08-19T09:18:08;11.20;;;10.10;;
39994;SDS011;25686;51.908;10.418;2022-08-19T09:22:10;11.55;;;9.35;;
39994;SDS011;25686;51.908;10.418;2022-08-19T09:24:11;12.88;;;9.90;;
39994;SDS011;25686;51.908;10.418;2022-08-19T09:26:14;11.02;;;9.63;;
39994;SDS011;25686;51.908;10.418;2022-08-19T09:28:15;10.38;;;9.25;;
39994;SDS011;25686;51.908;10.418;2022-08-19T09:30:18;10.30;;;8.13;;
39994;SDS011;25686;51.908;10.418;2022-08-19T09:32:19;9.90;;;8.65;;
39994;SDS011;25686;51.908;10.418;2022-08-19T09:34:20;11.40;;;8.43;;
39994;SDS011;25686;51.908;10.418;2022-08-19T09:36:21;10.35;;;7.90;;
39994;SDS011;25686;51.908;10.418;2022-08-19T09:38:23;11.43;;;7.43;;
39994;SDS011;25686;51.908;10.418;2022-08-19T09:40:24;10.45;;;8.02;;
39994;SDS011;25686;51.908;10.418;2022-08-19T09:42:25;8.57;;;7.35;;
39994;SDS011;25686;51.908;10.418;2022-08-19T09:44:26;10.43;;;7.25;;
39994;SDS011;25686;51.908;10.418;2022-08-19T09:46:27;10.93;;;7.88;;
39994;SDS011;25686;51.908;10.418;2022-08-19T09:48:30;8.57;;;7.72;;
39994;SDS011;25686;51.908;10.418;2022-08-19T09:50:31;11.57;;;7.25;;
39994;SDS011;25686;51.908;10.418;2022-08-19T09:52:34;8.98;;;7.40;;
39994;SDS011;25686;51.908;10.418;2022-08-19T09:54:37;10.65;;;7.75;;
39994;SDS011;25686;51.908;10.418;2022-08-19T09:56:38;10.77;;;8.20;;
39994;SDS011;25686;51.908;10.418;2022-08-19T09:58:39;10.07;;;7.28;;
39994;SDS011;25686;51.908;10.418;2022-08-19T10:00:40;10.05;;;7.65;;
39994;SDS011;25686;51.908;10.418;2022-08-19T10:02:41;8.30;;;7.00;;
39994;SDS011;25686;51.908;10.418;2022-08-19T10:04:42;8.15;;;7.20;;
39994;SDS011;25686;51.908;10.418;2022-08-19T10:07:02;10.25;;;7.40;;
39994;SDS011;25686;51.908;10.418;2022-08-19T10:09:05;7.70;;;6.82;;
39994;SDS011;25686;51.908;10.418;2022-08-19T10:11:07;8.27;;;6.72;;
39994;SDS011;25686;51.908;10.418;2022-08-19T10:13:09;8.40;;;6.28;;
39994;SDS011;25686;51.908;10.418;2022-08-19T10:15:10;8.68;;;6.63;;
39994;SDS011;25686;51.908;10.418;2022-08-19T10:17:12;6.97;;;6.20;;
39994;SDS011;25686;51.908;10.418;2022-08-19T10:19:14;6.35;;;5.43;;
39994;SDS011;25686;51.908;10.418;2022-08-19T10:21:19;5.38;;;4.88;;
39994;SDS011;25686;51.908;10.418;2022-08-19T10:23:20;4.82;;;4.40;;
39994;SDS011;25686;51.908;10.418;2022-08-19T10:25:21;5.70;;;4.63;;
39994;SDS011;25686;51.908;10.418;2022-08-19T10:27:22;5.20;;;4.30;;
39994;SDS011;25686;51.908;10.418;2022-08-19T10:29:23;5.63;;;3.70;;
39994;SDS011;25686;51.908;10.418;2022-08-19T10:31:26;4.43;;;4.03;;
39994;SDS011;25686;51.908;10.418;2022-08-19T10:33:28;6.57;;;4.10;;
39994;SDS011;25686;51.908;10.418;2022-08-19T10:35:31;5.40;;;3.88;;
39994;SDS011;25686;51.908;10.418;2022-08-19T10:37:32;4.93;;;3.78;;
39994;SDS011;25686;51.908;10.418;2022-08-19T10:39:33;4.45;;;3.28;;
39994;SDS011;25686;51.908;10.418;2022-08-19T10:41:36;3.50;;;3.20;;
39994;SDS011;25686;51.908;10.418;2022-08-19T10:43:37;3.10;;;2.80;;
39994;SDS011;25686;51.908;10.418;2022-08-19T10:45:39;3.67;;;2.72;;
39994;SDS011;25686;51.908;10.418;2022-08-19T10:47:40;3.65;;;2.92;;
39994;SDS011;25686;51.908;10.418;2022-08-19T10:49:41;3.33;;;2.60;;
39994;SDS011;25686;51.908;10.418;2022-08-19T10:52:01;6.68;;;2.60;;
39994;SDS011;25686;51.908;10.418;2022-08-19T10:54:20;2.60;;;2.40;;
39994;SDS011;25686;51.908;10.418;2022-08-19T10:56:21;4.05;;;2.85;;
39994;SDS011;25686;51.908;10.418;2022-08-19T10:58:41;3.58;;;2.60;;
39994;SDS011;25686;51.908;10.418;2022-08-19T11:00:43;3.72;;;3.00;;
39994;SDS011;25686;51.908;10.418;2022-08-19T11:02:44;4.28;;;3.00;;
39994;SDS011;25686;51.908;10.418;2022-08-19T11:04:46;7.28;;;2.70;;
39994;SDS011;25686;51.908;10.418;2022-08-19T11:06:49;3.53;;;2.70;;
39994;SDS011;25686;51.908;10.418;2022-08-19T11:08:51;3.05;;;2.60;;
39994;SDS011;25686;51.908;10.418;2022-08-19T11:10:52;3.90;;;2.90;;
39994;SDS011;25686;51.908;10.418;2022-08-19T11:12:56;3.22;;;2.80;;
39994;SDS011;25686;51.908;10.418;2022-08-19T11:14:57;4.70;;;2.97;;
39994;SDS011;25686;51.908;10.418;2022-08-19T11:16:58;5.22;;;2.92;;
39994;SDS011;25686;51.908;10.418;2022-08-19T11:18:59;3.75;;;2.63;;
39994;SDS011;25686;51.908;10.418;2022-08-19T11:21:05;2.85;;;2.50;;
39994;SDS011;25686;51.908;10.418;2022-08-19T11:23:06;4.95;;;2.83;;
39994;SDS011;25686;51.908;10.418;2022-08-19T11:25:08;3.70;;;2.75;;
39994;SDS011;25686;51.908;10.418;2022-08-19T11:27:10;4.07;;;2.60;;
39994;SDS011;25686;51.908;10.418;2022-08-19T11:29:12;7.63;;;3.00;;
39994;SDS011;25686;51.908;10.418;2022-08-19T11:31:14;4.78;;;2.90;;
39994;SDS011;25686;51.908;10.418;2022-08-19T11:33:15;4.35;;;3.00;;
39994;SDS011;25686;51.908;10.418;2022-08-19T11:35:16;4.72;;;2.50;;
39994;SDS011;25686;51.908;10.418;2022-08-19T11:37:19;4.15;;;2.60;;
39994;SDS011;25686;51.908;10.418;2022-08-19T11:39:21;3.83;;;2.65;;
39994;SDS011;25686;51.908;10.418;2022-08-19T11:41:23;3.65;;;2.42;;
39994;SDS011;25686;51.908;10.418;2022-08-19T11:43:24;3.33;;;2.60;;
39994;SDS011;25686;51.908;10.418;2022-08-19T11:45:26;6.20;;;2.90;;
39994;SDS011;25686;51.908;10.418;2022-08-19T11:47:28;3.53;;;2.90;;
39994;SDS011;25686;51.908;10.418;2022-08-19T11:49:30;4.28;;;3.17;;
39994;SDS011;25686;51.908;10.418;2022-08-19T11:51:31;4.07;;;2.72;;
39994;SDS011;25686;51.908;10.418;2022-08-19T11:53:33;4.10;;;2.72;;
39994;SDS011;25686;51.908;10.418;2022-08-19T11:55:38;4.32;;;2.70;;
39994;SDS011;25686;51.908;10.418;2022-08-19T11:57:40;4.43;;;2.70;;
39994;SDS011;25686;51.908;10.418;2022-08-19T11:59:41;4.05;;;2.40;;